sensor_id;sensor_type;location;lat;lon;timestamp;P1;durP1;ratioP1;P2;durP2;ratioP2
1715;SDS011;855;48.824;9.220;2022-07-29T00:00:30;12.30;;;7.70;;
1715;SDS011;855;48.824;9.220;2022-07-29T00:02:57;15.13;;;7.60;;
1715;SDS011;855;48.824;9.220;2022-07-29T00:05:24;9.27;;;6.60;;
1715;SDS011;855;48.824;9.220;2022-07-29T00:07:51;11.50;;;7.87;;
1715;SDS011;855;48.824;9.220;2022-07-29T00:10:18;9.10;;;6.40;;
1715;SDS011;855;48.824;9.220;2022-07-29T00:12:46;9.07;;;6.60;;
1715;SDS011;855;48.824;9.220;2022-07-29T00:15:13;16.33;;;6.93;;
1715;SDS011;855;48.824;9.220;2022-07-29T00:17:40;12.40;;;6.80;;
1715;SDS011;855;48.824;9.220;2022-07-29T00:20:07;9.60;;;7.07;;
1715;SDS011;855;48.824;9.220;2022-07-29T00:22:36;12.50;;;7.10;;
1715;SDS011;855;48.824;9.220;2022-07-29T00:25:04;7.70;;;6.10;;
1715;SDS011;855;48.824;9.220;2022-07-29T00:27:31;13.40;;;6.60;;
1715;SDS011;855;48.824;9.220;2022-07-29T00:29:59;8.83;;;6.90;;
1715;SDS011;855;48.824;9.220;2022-07-29T00:32:26;10.53;;;5.80;;
1715;SDS011;855;48.824;9.220;2022-07-29T00:34:53;8.40;;;5.70;;
1715;SDS011;855;48.824;9.220;2022-07-29T00:37:37;12.63;;;6.07;;
1715;SDS011;855;48.824;9.220;2022-07-29T00:40:04;10.77;;;6.03;;
1715;SDS011;855;48.824;9.220;2022-07-29T00:42:40;11.60;;;6.23;;
1715;SDS011;855;48.824;9.220;2022-07-29T00:45:09;9.87;;;6.00;;
1715;SDS011;855;48.824;9.220;2022-07-29T00:47:37;8.60;;;5.60;;
1715;SDS011;855;48.824;9.220;2022-07-29T00:50:04;9.00;;;6.40;;
1715;SDS011;855;48.824;9.220;2022-07-29T00:52:32;11.30;;;6.80;;
1715;SDS011;855;48.824;9.220;2022-07-29T00:55:00;14.43;;;6.23;;
1715;SDS011;855;48.824;9.220;2022-07-29T00:57:28;8.63;;;6.87;;
1715;SDS011;855;48.824;9.220;2022-07-29T00:59:55;13.20;;;7.17;;
1715;SDS011;855;48.824;9.220;2022-07-29T01:02:23;17.40;;;6.77;;
1715;SDS011;855;48.824;9.220;2022-07-29T01:04:50;15.10;;;6.63;;
1715;SDS011;855;48.824;9.220;2022-07-29T01:07:17;9.10;;;5.70;;
1715;SDS011;855;48.824;9.220;2022-07-29T01:09:44;12.73;;;7.33;;
1715;SDS011;855;48.824;9.220;2022-07-29T01:12:12;12.63;;;7.37;;
1715;SDS011;855;48.824;9.220;2022-07-29T01:14:41;10.87;;;6.70;;
1715;SDS011;855;48.824;9.220;2022-07-29T01:17:09;11.47;;;7.57;;
1715;SDS011;855;48.824;9.220;2022-07-29T01:19:50;11.67;;;6.80;;
1715;SDS011;855;48.824;9.220;2022-07-29T01:22:25;18.27;;;8.17;;
1715;SDS011;855;48.824;9.220;2022-07-29T01:25:03;10.40;;;6.40;;
1715;SDS011;855;48.824;9.220;2022-07-29T01:27:41;11.60;;;6.97;;
1715;SDS011;855;48.824;9.220;2022-07-29T01:30:18;15.67;;;7.80;;
1715;SDS011;855;48.824;9.220;2022-07-29T01:32:47;13.17;;;7.30;;
1715;SDS011;855;48.824;9.220;2022-07-29T01:35:20;9.10;;;7.10;;
1715;SDS011;855;48.824;9.220;2022-07-29T01:37:50;8.77;;;6.13;;
1715;SDS011;855;48.824;9.220;2022-07-29T01:40:22;6.77;;;6.03;;
1715;SDS011;855;48.824;9.220;2022-07-29T01:42:54;13.63;;;6.67;;
1715;SDS011;855;48.824;9.220;2022-07-29T01:45:24;11.80;;;6.63;;
1715;SDS011;855;48.824;9.220;2022-07-29T01:47:56;14.20;;;7.10;;
1715;SDS011;855;48.824;9.220;2022-07-29T01:50:28;9.67;;;7.20;;
1715;SDS011;855;48.824;9.220;2022-07-29T01:52:59;11.70;;;6.60;;
1715;SDS011;855;48.824;9.220;2022-07-29T01:55:28;9.30;;;6.57;;
1715;SDS011;855;48.824;9.220;2022-07-29T01:57:58;8.83;;;5.53;;
1715;SDS011;855;48.824;9.220;2022-07-29T02:00:28;8.73;;;6.63;;
1715;SDS011;855;48.824;9.220;2022-07-29T02:02:57;8.83;;;5.90;;
1715;SDS011;855;48.824;9.220;2022-07-29T02:05:27;10.43;;;5.83;;
1715;SDS011;855;48.824;9.220;2022-07-29T02:07:55;8.50;;;6.13;;
1715;SDS011;855;48.824;9.220;2022-07-29T02:10:26;11.13;;;6.33;;
1715;SDS011;855;48.824;9.220;2022-07-29T02:12:56;12.33;;;6.67;;
1715;SDS011;855;48.824;9.220;2022-07-29T02:15:24;11.50;;;6.97;;
1715;SDS011;855;48.824;9.220;2022-07-29T02:17:59;15.43;;;6.63;;
1715;SDS011;855;48.824;9.220;2022-07-29T02:20:28;9.60;;;6.50;;
1715;SDS011;855;48.824;9.220;2022-07-29T02:22:56;13.53;;;7.20;;
1715;SDS011;855;48.824;9.220;2022-07-29T02:25:25;9.90;;;6.80;;
1715;SDS011;855;48.824;9.220;2022-07-29T02:27:53;9.07;;;6.40;;
1715;SDS011;855;48.824;9.220;2022-07-29T02:30:21;11.90;;;7.40;;
1715;SDS011;855;48.824;9.220;2022-07-29T02:32:50;10.20;;;6.80;;
1715;SDS011;855;48.824;9.220;2022-07-29T02:35:19;10.97;;;5.87;;
1715;SDS011;855;48.824;9.220;2022-07-29T02:37:47;12.83;;;7.13;;
1715;SDS011;855;48.824;9.220;2022-07-29T02:40:35;8.40;;;6.60;;
1715;SDS011;855;48.824;9.220;2022-07-29T02:43:05;11.60;;;6.60;;
1715;SDS011;855;48.824;9.220;2022-07-29T02:45:34;13.17;;;6.37;;
1715;SDS011;855;48.824;9.220;2022-07-29T02:48:02;11.77;;;6.67;;
1715;SDS011;855;48.824;9.220;2022-07-29T02:50:38;11.33;;;7.50;;
1715;SDS011;855;48.824;9.220;2022-07-29T02:53:11;10.90;;;6.20;;
1715;SDS011;855;48.824;9.220;2022-07-29T02:55:43;13.00;;;7.07;;
1715;SDS011;855;48.824;9.220;2022-07-29T02:58:13;14.77;;;6.30;;
1715;SDS011;855;48.824;9.220;2022-07-29T03:00:47;13.17;;;6.90;;
1715;SDS011;855;48.824;9.220;2022-07-29T03:03:17;11.77;;;7.23;;
1715;SDS011;855;48.824;9.220;2022-07-29T03:05:48;13.13;;;8.00;;
1715;SDS011;855;48.824;9.220;2022-07-29T03:08:16;12.00;;;7.67;;
1715;SDS011;855;48.824;9.220;2022-07-29T03:10:44;11.80;;;7.43;;
1715;SDS011;855;48.824;9.220;2022-07-29T03:13:13;9.37;;;6.67;;
1715;SDS011;855;48.824;9.220;2022-07-29T03:15:41;11.17;;;7.00;;
1715;SDS011;855;48.824;9.220;2022-07-29T03:18:09;11.30;;;7.67;;
1715;SDS011;855;48.824;9.220;2022-07-29T03:20:36;10.50;;;6.60;;
1715;SDS011;855;48.824;9.220;2022-07-29T03:23:05;8.57;;;6.27;;
1715;SDS011;855;48.824;9.220;2022-07-29T03:25:33;8.70;;;6.70;;
1715;SDS011;855;48.824;9.220;2022-07-29T03:28:00;9.57;;;6.77;;
1715;SDS011;855;48.824;9.220;2022-07-29T03:30:27;12.50;;;7.60;;
1715;SDS011;855;48.824;9.220;2022-07-29T03:32:55;13.53;;;7.33;;
1715;SDS011;855;48.824;9.220;2022-07-29T03:35:22;11.47;;;6.80;;
1715;SDS011;855;48.824;9.220;2022-07-29T03:37:49;17.83;;;6.73;;
1715;SDS011;855;48.824;9.220;2022-07-29T03:40:18;9.70;;;7.57;;
1715;SDS011;855;48.824;9.220;2022-07-29T03:42:48;17.37;;;9.00;;
1715;SDS011;855;48.824;9.220;2022-07-29T03:45:17;10.60;;;7.17;;
1715;SDS011;855;48.824;9.220;2022-07-29T03:47:47;9.27;;;7.50;;
1715;SDS011;855;48.824;9.220;2022-07-29T03:50:16;15.03;;;9.60;;
1715;SDS011;855;48.824;9.220;2022-07-29T03:52:46;13.50;;;7.93;;
1715;SDS011;855;48.824;9.220;2022-07-29T03:55:13;8.53;;;6.23;;
1715;SDS011;855;48.824;9.220;2022-07-29T03:57:43;11.97;;;6.70;;
1715;SDS011;855;48.824;9.220;2022-07-29T04:00:12;10.63;;;7.13;;
1715;SDS011;855;48.824;9.220;2022-07-29T04:02:41;15.40;;;8.80;;
1715;SDS011;855;48.824;9.220;2022-07-29T04:05:13;12.70;;;7.57;;
1715;SDS011;855;48.824;9.220;2022-07-29T04:07:42;11.60;;;8.40;;
1715;SDS011;855;48.824;9.220;2022-07-29T04:10:10;15.33;;;7.67;;
1715;SDS011;855;48.824;9.220;2022-07-29T04:12:37;10.07;;;7.60;;
1715;SDS011;855;48.824;9.220;2022-07-29T04:15:05;9.97;;;6.67;;
1715;SDS011;855;48.824;9.220;2022-07-29T04:17:33;13.03;;;6.37;;
1715;SDS011;855;48.824;9.220;2022-07-29T04:20:00;11.40;;;7.00;;
1715;SDS011;855;48.824;9.220;2022-07-29T04:22:27;11.20;;;7.00;;
1715;SDS011;855;48.824;9.220;2022-07-29T04:24:54;14.10;;;8.50;;
1715;SDS011;855;48.824;9.220;2022-07-29T04:27:20;15.20;;;7.37;;
1715;SDS011;855;48.824;9.220;2022-07-29T04:29:47;15.67;;;6.63;;
1715;SDS011;855;48.824;9.220;2022-07-29T04:32:15;11.93;;;7.40;;
1715;SDS011;855;48.824;9.220;2022-07-29T04:34:42;10.73;;;6.63;;
1715;SDS011;855;48.824;9.220;2022-07-29T04:37:11;17.30;;;8.37;;
1715;SDS011;855;48.824;9.220;2022-07-29T04:39:38;12.23;;;8.60;;
1715;SDS011;855;48.824;9.220;2022-07-29T04:42:05;12.70;;;7.57;;
1715;SDS011;855;48.824;9.220;2022-07-29T04:44:32;11.97;;;7.67;;
1715;SDS011;855;48.824;9.220;2022-07-29T04:46:59;13.20;;;8.00;;
1715;SDS011;855;48.824;9.220;2022-07-29T04:49:27;10.87;;;7.97;;
1715;SDS011;855;48.824;9.220;2022-07-29T04:51:54;9.80;;;7.57;;
1715;SDS011;855;48.824;9.220;2022-07-29T04:54:20;14.30;;;7.70;;
1715;SDS011;855;48.824;9.220;2022-07-29T04:56:47;8.60;;;6.30;;
1715;SDS011;855;48.824;9.220;2022-07-29T04:59:14;10.00;;;7.00;;
1715;SDS011;855;48.824;9.220;2022-07-29T05:01:41;13.60;;;7.87;;
1715;SDS011;855;48.824;9.220;2022-07-29T05:04:08;12.00;;;7.00;;
1715;SDS011;855;48.824;9.220;2022-07-29T05:06:36;12.00;;;7.67;;
1715;SDS011;855;48.824;9.220;2022-07-29T05:09:03;17.73;;;8.20;;
1715;SDS011;855;48.824;9.220;2022-07-29T05:11:30;9.70;;;7.60;;
1715;SDS011;855;48.824;9.220;2022-07-29T05:13:56;10.63;;;6.53;;
1715;SDS011;855;48.824;9.220;2022-07-29T05:16:23;13.50;;;7.33;;
1715;SDS011;855;48.824;9.220;2022-07-29T05:18:50;18.83;;;7.30;;
1715;SDS011;855;48.824;9.220;2022-07-29T05:21:17;9.47;;;6.80;;
1715;SDS011;855;48.824;9.220;2022-07-29T05:23:45;13.03;;;6.73;;
1715;SDS011;855;48.824;9.220;2022-07-29T05:26:12;15.70;;;7.40;;
1715;SDS011;855;48.824;9.220;2022-07-29T05:28:39;9.20;;;6.23;;
1715;SDS011;855;48.824;9.220;2022-07-29T05:31:06;10.53;;;6.50;;
1715;SDS011;855;48.824;9.220;2022-07-29T05:33:33;7.40;;;5.90;;
1715;SDS011;855;48.824;9.220;2022-07-29T05:35:59;10.23;;;6.70;;
1715;SDS011;855;48.824;9.220;2022-07-29T05:38:26;8.87;;;5.50;;
1715;SDS011;855;48.824;9.220;2022-07-29T05:40:57;8.30;;;5.33;;
1715;SDS011;855;48.824;9.220;2022-07-29T05:43:24;15.63;;;6.37;;
1715;SDS011;855;48.824;9.220;2022-07-29T05:45:51;9.00;;;5.50;;
1715;SDS011;855;48.824;9.220;2022-07-29T05:48:18;8.90;;;6.30;;
1715;SDS011;855;48.824;9.220;2022-07-29T05:50:45;12.33;;;6.00;;
1715;SDS011;855;48.824;9.220;2022-07-29T05:53:12;11.37;;;4.80;;
1715;SDS011;855;48.824;9.220;2022-07-29T05:55:39;8.60;;;5.50;;
1715;SDS011;855;48.824;9.220;2022-07-29T05:58:07;9.67;;;5.70;;
1715;SDS011;855;48.824;9.220;2022-07-29T06:00:34;13.10;;;5.73;;
1715;SDS011;855;48.824;9.220;2022-07-29T06:03:01;9.67;;;4.90;;
1715;SDS011;855;48.824;9.220;2022-07-29T06:05:27;17.20;;;5.27;;
1715;SDS011;855;48.824;9.220;2022-07-29T06:07:54;10.60;;;4.70;;
1715;SDS011;855;48.824;9.220;2022-07-29T06:10:21;7.70;;;4.10;;
1715;SDS011;855;48.824;9.220;2022-07-29T06:12:49;9.63;;;4.50;;
1715;SDS011;855;48.824;9.220;2022-07-29T06:15:17;9.50;;;4.00;;
1715;SDS011;855;48.824;9.220;2022-07-29T06:17:44;8.23;;;3.97;;
1715;SDS011;855;48.824;9.220;2022-07-29T06:20:13;6.20;;;4.17;;
1715;SDS011;855;48.824;9.220;2022-07-29T06:22:39;5.23;;;3.43;;
1715;SDS011;855;48.824;9.220;2022-07-29T06:25:06;6.00;;;3.73;;
1715;SDS011;855;48.824;9.220;2022-07-29T06:27:34;13.57;;;4.13;;
1715;SDS011;855;48.824;9.220;2022-07-29T06:30:01;8.63;;;3.80;;
1715;SDS011;855;48.824;9.220;2022-07-29T06:32:29;6.90;;;3.77;;
1715;SDS011;855;48.824;9.220;2022-07-29T06:34:56;5.83;;;3.20;;
1715;SDS011;855;48.824;9.220;2022-07-29T06:37:23;6.17;;;3.90;;
1715;SDS011;855;48.824;9.220;2022-07-29T06:39:50;5.80;;;3.87;;
1715;SDS011;855;48.824;9.220;2022-07-29T06:42:37;7.10;;;3.57;;
1715;SDS011;855;48.824;9.220;2022-07-29T06:45:07;6.07;;;3.73;;
1715;SDS011;855;48.824;9.220;2022-07-29T06:47:36;9.20;;;4.00;;
1715;SDS011;855;48.824;9.220;2022-07-29T06:50:04;6.13;;;3.97;;
1715;SDS011;855;48.824;9.220;2022-07-29T06:52:31;4.40;;;3.33;;
1715;SDS011;855;48.824;9.220;2022-07-29T06:54:58;7.07;;;4.43;;
1715;SDS011;855;48.824;9.220;2022-07-29T06:57:25;6.87;;;3.60;;
1715;SDS011;855;48.824;9.220;2022-07-29T06:59:52;5.03;;;3.20;;
1715;SDS011;855;48.824;9.220;2022-07-29T07:02:19;4.30;;;2.90;;
1715;SDS011;855;48.824;9.220;2022-07-29T07:04:47;6.30;;;4.50;;
1715;SDS011;855;48.824;9.220;2022-07-29T07:07:14;9.23;;;4.17;;
1715;SDS011;855;48.824;9.220;2022-07-29T07:09:41;10.33;;;3.50;;
1715;SDS011;855;48.824;9.220;2022-07-29T07:12:08;8.97;;;3.83;;
1715;SDS011;855;48.824;9.220;2022-07-29T07:14:35;8.00;;;4.37;;
1715;SDS011;855;48.824;9.220;2022-07-29T07:17:02;5.63;;;3.40;;
1715;SDS011;855;48.824;9.220;2022-07-29T07:19:29;9.53;;;3.40;;
1715;SDS011;855;48.824;9.220;2022-07-29T07:21:57;4.70;;;3.10;;
1715;SDS011;855;48.824;9.220;2022-07-29T07:24:24;6.43;;;3.07;;
1715;SDS011;855;48.824;9.220;2022-07-29T07:26:51;6.00;;;3.07;;
1715;SDS011;855;48.824;9.220;2022-07-29T07:29:18;6.03;;;4.20;;
1715;SDS011;855;48.824;9.220;2022-07-29T07:31:45;4.90;;;2.97;;
1715;SDS011;855;48.824;9.220;2022-07-29T07:34:12;10.23;;;3.50;;
1715;SDS011;855;48.824;9.220;2022-07-29T07:36:39;4.57;;;2.80;;
1715;SDS011;855;48.824;9.220;2022-07-29T07:39:07;7.50;;;3.27;;
1715;SDS011;855;48.824;9.220;2022-07-29T07:41:34;8.10;;;3.50;;
1715;SDS011;855;48.824;9.220;2022-07-29T07:44:00;4.97;;;3.30;;
1715;SDS011;855;48.824;9.220;2022-07-29T07:46:27;6.43;;;3.77;;
1715;SDS011;855;48.824;9.220;2022-07-29T07:48:54;6.03;;;3.60;;
1715;SDS011;855;48.824;9.220;2022-07-29T07:51:21;6.50;;;3.83;;
1715;SDS011;855;48.824;9.220;2022-07-29T07:53:48;8.33;;;3.60;;
1715;SDS011;855;48.824;9.220;2022-07-29T07:56:16;6.90;;;3.40;;
1715;SDS011;855;48.824;9.220;2022-07-29T07:58:43;3.47;;;3.27;;
1715;SDS011;855;48.824;9.220;2022-07-29T08:01:10;7.87;;;3.83;;
1715;SDS011;855;48.824;9.220;2022-07-29T08:03:37;6.40;;;4.30;;
1715;SDS011;855;48.824;9.220;2022-07-29T08:06:04;8.80;;;4.10;;
1715;SDS011;855;48.824;9.220;2022-07-29T08:08:31;5.60;;;3.37;;
1715;SDS011;855;48.824;9.220;2022-07-29T08:10:58;7.90;;;3.70;;
1715;SDS011;855;48.824;9.220;2022-07-29T08:13:28;5.87;;;4.40;;
1715;SDS011;855;48.824;9.220;2022-07-29T08:15:56;7.67;;;4.10;;
1715;SDS011;855;48.824;9.220;2022-07-29T08:18:25;6.03;;;3.57;;
1715;SDS011;855;48.824;9.220;2022-07-29T08:20:52;9.53;;;4.00;;
1715;SDS011;855;48.824;9.220;2022-07-29T08:23:19;7.17;;;3.57;;
1715;SDS011;855;48.824;9.220;2022-07-29T08:25:47;6.77;;;3.87;;
1715;SDS011;855;48.824;9.220;2022-07-29T08:28:14;4.37;;;3.70;;
1715;SDS011;855;48.824;9.220;2022-07-29T08:30:43;8.23;;;3.80;;
1715;SDS011;855;48.824;9.220;2022-07-29T08:33:10;7.03;;;3.60;;
1715;SDS011;855;48.824;9.220;2022-07-29T08:35:36;8.50;;;3.73;;
1715;SDS011;855;48.824;9.220;2022-07-29T08:38:05;8.70;;;4.20;;
1715;SDS011;855;48.824;9.220;2022-07-29T08:40:32;8.93;;;4.03;;
1715;SDS011;855;48.824;9.220;2022-07-29T08:42:59;9.53;;;4.60;;
1715;SDS011;855;48.824;9.220;2022-07-29T08:45:31;9.53;;;4.50;;
1715;SDS011;855;48.824;9.220;2022-07-29T08:48:08;13.00;;;4.03;;
1715;SDS011;855;48.824;9.220;2022-07-29T08:50:35;6.57;;;4.23;;
1715;SDS011;855;48.824;9.220;2022-07-29T08:53:04;5.30;;;3.90;;
1715;SDS011;855;48.824;9.220;2022-07-29T08:55:32;5.50;;;4.70;;
1715;SDS011;855;48.824;9.220;2022-07-29T08:58:00;6.40;;;4.30;;
1715;SDS011;855;48.824;9.220;2022-07-29T09:00:27;12.97;;;4.53;;
1715;SDS011;855;48.824;9.220;2022-07-29T09:02:56;8.83;;;4.60;;
1715;SDS011;855;48.824;9.220;2022-07-29T09:05:26;8.30;;;3.90;;
1715;SDS011;855;48.824;9.220;2022-07-29T09:07:54;6.83;;;4.00;;
1715;SDS011;855;48.824;9.220;2022-07-29T09:10:21;6.57;;;4.00;;
1715;SDS011;855;48.824;9.220;2022-07-29T09:12:48;8.13;;;5.30;;
1715;SDS011;855;48.824;9.220;2022-07-29T09:15:15;10.20;;;4.87;;
1715;SDS011;855;48.824;9.220;2022-07-29T09:17:44;10.10;;;4.43;;
1715;SDS011;855;48.824;9.220;2022-07-29T09:20:13;7.63;;;4.73;;
1715;SDS011;855;48.824;9.220;2022-07-29T09:22:42;9.07;;;4.60;;
1715;SDS011;855;48.824;9.220;2022-07-29T09:25:12;6.63;;;4.03;;
1715;SDS011;855;48.824;9.220;2022-07-29T09:27:39;15.53;;;5.37;;
1715;SDS011;855;48.824;9.220;2022-07-29T09:30:07;6.10;;;4.27;;
1715;SDS011;855;48.824;9.220;2022-07-29T09:35:22;7.30;;;5.20;;
1715;SDS011;855;48.824;9.220;2022-07-29T09:37:51;9.07;;;5.53;;
1715;SDS011;855;48.824;9.220;2022-07-29T09:40:18;7.37;;;4.93;;
1715;SDS011;855;48.824;9.220;2022-07-29T09:42:46;8.40;;;5.00;;
1715;SDS011;855;48.824;9.220;2022-07-29T09:45:25;6.17;;;4.13;;
1715;SDS011;855;48.824;9.220;2022-07-29T09:47:54;7.57;;;5.03;;
1715;SDS011;855;48.824;9.220;2022-07-29T09:50:34;8.63;;;4.47;;
1715;SDS011;855;48.824;9.220;2022-07-29T09:53:03;10.07;;;5.77;;
1715;SDS011;855;48.824;9.220;2022-07-29T09:55:30;8.17;;;5.10;;
1715;SDS011;855;48.824;9.220;2022-07-29T10:00:42;16.40;;;4.83;;
1715;SDS011;855;48.824;9.220;2022-07-29T10:03:10;9.73;;;4.60;;
1715;SDS011;855;48.824;9.220;2022-07-29T10:05:37;7.07;;;4.63;;
1715;SDS011;855;48.824;9.220;2022-07-29T10:08:06;9.33;;;4.70;;
1715;SDS011;855;48.824;9.220;2022-07-29T10:10:35;5.80;;;5.03;;
1715;SDS011;855;48.824;9.220;2022-07-29T10:13:03;9.07;;;5.80;;
1715;SDS011;855;48.824;9.220;2022-07-29T10:15:31;8.07;;;4.60;;
1715;SDS011;855;48.824;9.220;2022-07-29T10:18:02;7.50;;;4.97;;
1715;SDS011;855;48.824;9.220;2022-07-29T10:20:29;11.63;;;5.43;;
1715;SDS011;855;48.824;9.220;2022-07-29T10:22:56;9.13;;;5.73;;
1715;SDS011;855;48.824;9.220;2022-07-29T10:25:25;8.13;;;5.27;;
1715;SDS011;855;48.824;9.220;2022-07-29T10:27:53;12.23;;;5.53;;
1715;SDS011;855;48.824;9.220;2022-07-29T10:30:20;7.77;;;5.87;;
1715;SDS011;855;48.824;9.220;2022-07-29T10:32:56;9.47;;;4.70;;
1715;SDS011;855;48.824;9.220;2022-07-29T10:35:40;14.83;;;5.63;;
1715;SDS011;855;48.824;9.220;2022-07-29T10:41:23;16.97;;;5.23;;
1715;SDS011;855;48.824;9.220;2022-07-29T10:44:13;10.70;;;5.73;;
1715;SDS011;855;48.824;9.220;2022-07-29T10:46:42;14.10;;;5.77;;
1715;SDS011;855;48.824;9.220;2022-07-29T10:49:11;10.50;;;6.30;;
1715;SDS011;855;48.824;9.220;2022-07-29T10:51:50;9.73;;;5.37;;
1715;SDS011;855;48.824;9.220;2022-07-29T10:54:37;11.63;;;5.60;;
1715;SDS011;855;48.824;9.220;2022-07-29T10:57:15;10.70;;;6.23;;
1715;SDS011;855;48.824;9.220;2022-07-29T10:59:47;11.33;;;5.70;;
1715;SDS011;855;48.824;9.220;2022-07-29T11:05:08;12.13;;;5.70;;
1715;SDS011;855;48.824;9.220;2022-07-29T11:07:36;12.97;;;5.77;;
1715;SDS011;855;48.824;9.220;2022-07-29T11:10:20;11.43;;;5.40;;
1715;SDS011;855;48.824;9.220;2022-07-29T11:12:50;9.50;;;4.97;;
1715;SDS011;855;48.824;9.220;2022-07-29T11:15:18;15.50;;;6.17;;
1715;SDS011;855;48.824;9.220;2022-07-29T11:20:32;8.40;;;5.57;;
1715;SDS011;855;48.824;9.220;2022-07-29T11:23:01;10.93;;;6.57;;
1715;SDS011;855;48.824;9.220;2022-07-29T11:25:43;11.50;;;6.37;;
1715;SDS011;855;48.824;9.220;2022-07-29T11:28:13;12.80;;;7.07;;
1715;SDS011;855;48.824;9.220;2022-07-29T11:30:48;15.50;;;7.83;;
1715;SDS011;855;48.824;9.220;2022-07-29T11:36:08;14.00;;;7.03;;
1715;SDS011;855;48.824;9.220;2022-07-29T11:38:36;15.73;;;7.57;;
1715;SDS011;855;48.824;9.220;2022-07-29T11:41:19;11.40;;;7.23;;
1715;SDS011;855;48.824;9.220;2022-07-29T11:43:49;19.53;;;7.87;;
1715;SDS011;855;48.824;9.220;2022-07-29T11:46:18;15.13;;;7.80;;
1715;SDS011;855;48.824;9.220;2022-07-29T11:49:02;20.23;;;8.00;;
1715;SDS011;855;48.824;9.220;2022-07-29T11:51:31;13.30;;;7.80;;
1715;SDS011;855;48.824;9.220;2022-07-29T11:53:58;12.13;;;7.23;;
1715;SDS011;855;48.824;9.220;2022-07-29T11:56:26;13.00;;;5.77;;
1715;SDS011;855;48.824;9.220;2022-07-29T11:59:04;9.20;;;4.60;;
1715;SDS011;855;48.824;9.220;2022-07-29T12:01:31;9.30;;;4.50;;
1715;SDS011;855;48.824;9.220;2022-07-29T12:04:02;18.60;;;4.23;;
1715;SDS011;855;48.824;9.220;2022-07-29T12:06:32;8.60;;;4.40;;
1715;SDS011;855;48.824;9.220;2022-07-29T12:08:59;7.67;;;3.80;;
1715;SDS011;855;48.824;9.220;2022-07-29T12:11:26;10.77;;;5.00;;
1715;SDS011;855;48.824;9.220;2022-07-29T12:13:53;7.97;;;3.70;;
1715;SDS011;855;48.824;9.220;2022-07-29T12:16:21;7.80;;;3.90;;
1715;SDS011;855;48.824;9.220;2022-07-29T12:18:54;9.53;;;3.90;;
1715;SDS011;855;48.824;9.220;2022-07-29T12:21:24;10.20;;;3.57;;
1715;SDS011;855;48.824;9.220;2022-07-29T12:23:52;14.00;;;4.07;;
1715;SDS011;855;48.824;9.220;2022-07-29T12:26:20;17.23;;;3.77;;
1715;SDS011;855;48.824;9.220;2022-07-29T12:28:47;9.50;;;3.40;;
1715;SDS011;855;48.824;9.220;2022-07-29T12:31:15;5.10;;;3.83;;
1715;SDS011;855;48.824;9.220;2022-07-29T12:33:43;6.57;;;3.20;;
1715;SDS011;855;48.824;9.220;2022-07-29T12:36:19;8.30;;;3.70;;
1715;SDS011;855;48.824;9.220;2022-07-29T12:38:46;4.60;;;3.20;;
1715;SDS011;855;48.824;9.220;2022-07-29T12:41:13;8.33;;;3.17;;
1715;SDS011;855;48.824;9.220;2022-07-29T12:43:48;6.63;;;3.70;;
1715;SDS011;855;48.824;9.220;2022-07-29T12:46:18;6.80;;;3.67;;
1715;SDS011;855;48.824;9.220;2022-07-29T12:48:50;4.83;;;3.43;;
1715;SDS011;855;48.824;9.220;2022-07-29T12:51:25;7.90;;;3.87;;
1715;SDS011;855;48.824;9.220;2022-07-29T12:54:01;6.30;;;2.80;;
1715;SDS011;855;48.824;9.220;2022-07-29T12:56:30;5.00;;;3.33;;
1715;SDS011;855;48.824;9.220;2022-07-29T12:58:57;6.10;;;3.13;;
1715;SDS011;855;48.824;9.220;2022-07-29T13:01:24;15.00;;;4.00;;
1715;SDS011;855;48.824;9.220;2022-07-29T13:03:54;5.03;;;3.50;;
1715;SDS011;855;48.824;9.220;2022-07-29T13:06:36;4.13;;;3.50;;
1715;SDS011;855;48.824;9.220;2022-07-29T13:09:05;11.90;;;4.10;;
1715;SDS011;855;48.824;9.220;2022-07-29T13:11:34;6.87;;;4.10;;
1715;SDS011;855;48.824;9.220;2022-07-29T13:14:02;6.90;;;4.63;;
1715;SDS011;855;48.824;9.220;2022-07-29T13:16:29;11.70;;;4.13;;
1715;SDS011;855;48.824;9.220;2022-07-29T13:19:08;8.03;;;5.13;;
1715;SDS011;855;48.824;9.220;2022-07-29T13:21:36;6.30;;;4.27;;
1715;SDS011;855;48.824;9.220;2022-07-29T13:24:04;6.80;;;4.27;;
1715;SDS011;855;48.824;9.220;2022-07-29T13:26:32;13.50;;;4.87;;
1715;SDS011;855;48.824;9.220;2022-07-29T13:28:59;16.67;;;4.80;;
1715;SDS011;855;48.824;9.220;2022-07-29T13:31:26;11.47;;;5.67;;
1715;SDS011;855;48.824;9.220;2022-07-29T13:33:54;15.10;;;5.87;;
1715;SDS011;855;48.824;9.220;2022-07-29T13:36:22;11.87;;;5.77;;
1715;SDS011;855;48.824;9.220;2022-07-29T13:38:49;10.37;;;5.40;;
1715;SDS011;855;48.824;9.220;2022-07-29T13:41:16;16.10;;;7.40;;
1715;SDS011;855;48.824;9.220;2022-07-29T13:43:44;17.40;;;5.90;;
1715;SDS011;855;48.824;9.220;2022-07-29T13:46:11;13.50;;;5.83;;
1715;SDS011;855;48.824;9.220;2022-07-29T13:48:38;12.93;;;6.70;;
1715;SDS011;855;48.824;9.220;2022-07-29T13:51:05;13.07;;;6.50;;
1715;SDS011;855;48.824;9.220;2022-07-29T13:53:33;9.73;;;5.90;;
1715;SDS011;855;48.824;9.220;2022-07-29T13:56:00;11.07;;;5.93;;
1715;SDS011;855;48.824;9.220;2022-07-29T13:58:27;9.23;;;5.80;;
1715;SDS011;855;48.824;9.220;2022-07-29T14:00:55;14.30;;;5.67;;
1715;SDS011;855;48.824;9.220;2022-07-29T14:03:22;14.97;;;5.70;;
1715;SDS011;855;48.824;9.220;2022-07-29T14:05:49;13.33;;;6.17;;
1715;SDS011;855;48.824;9.220;2022-07-29T14:08:16;9.20;;;5.90;;
1715;SDS011;855;48.824;9.220;2022-07-29T14:10:44;14.40;;;7.87;;
1715;SDS011;855;48.824;9.220;2022-07-29T14:13:11;10.87;;;6.77;;
1715;SDS011;855;48.824;9.220;2022-07-29T14:15:38;13.27;;;7.63;;
1715;SDS011;855;48.824;9.220;2022-07-29T14:18:05;11.00;;;6.73;;
1715;SDS011;855;48.824;9.220;2022-07-29T14:20:32;11.57;;;6.47;;
1715;SDS011;855;48.824;9.220;2022-07-29T14:22:59;11.13;;;6.50;;
1715;SDS011;855;48.824;9.220;2022-07-29T14:25:25;13.10;;;6.60;;
1715;SDS011;855;48.824;9.220;2022-07-29T14:27:54;14.30;;;7.30;;
1715;SDS011;855;48.824;9.220;2022-07-29T14:30:21;12.20;;;6.60;;
1715;SDS011;855;48.824;9.220;2022-07-29T14:32:48;13.43;;;7.13;;
1715;SDS011;855;48.824;9.220;2022-07-29T14:35:15;12.90;;;7.63;;
1715;SDS011;855;48.824;9.220;2022-07-29T14:37:42;9.80;;;6.57;;
1715;SDS011;855;48.824;9.220;2022-07-29T14:40:09;13.13;;;7.40;;
1715;SDS011;855;48.824;9.220;2022-07-29T14:42:37;13.17;;;7.80;;
1715;SDS011;855;48.824;9.220;2022-07-29T14:45:06;11.27;;;8.27;;
1715;SDS011;855;48.824;9.220;2022-07-29T14:47:34;15.10;;;7.70;;
1715;SDS011;855;48.824;9.220;2022-07-29T14:50:02;12.77;;;7.50;;
1715;SDS011;855;48.824;9.220;2022-07-29T14:52:30;13.20;;;7.80;;
1715;SDS011;855;48.824;9.220;2022-07-29T14:54:56;13.90;;;8.10;;
1715;SDS011;855;48.824;9.220;2022-07-29T14:57:24;19.30;;;8.90;;
1715;SDS011;855;48.824;9.220;2022-07-29T14:59:51;11.93;;;7.30;;
1715;SDS011;855;48.824;9.220;2022-07-29T15:02:19;20.73;;;8.90;;
1715;SDS011;855;48.824;9.220;2022-07-29T15:04:46;18.30;;;9.00;;
1715;SDS011;855;48.824;9.220;2022-07-29T15:07:13;15.00;;;9.30;;
1715;SDS011;855;48.824;9.220;2022-07-29T15:09:40;13.50;;;8.10;;
1715;SDS011;855;48.824;9.220;2022-07-29T15:12:07;16.07;;;8.63;;
1715;SDS011;855;48.824;9.220;2022-07-29T15:14:35;11.10;;;7.60;;
1715;SDS011;855;48.824;9.220;2022-07-29T15:17:02;16.93;;;9.50;;
1715;SDS011;855;48.824;9.220;2022-07-29T15:19:30;11.80;;;8.13;;
1715;SDS011;855;48.824;9.220;2022-07-29T15:21:57;14.53;;;8.60;;
1715;SDS011;855;48.824;9.220;2022-07-29T15:24:25;20.40;;;8.03;;
1715;SDS011;855;48.824;9.220;2022-07-29T15:26:52;14.80;;;8.43;;
1715;SDS011;855;48.824;9.220;2022-07-29T15:29:19;14.90;;;8.37;;
1715;SDS011;855;48.824;9.220;2022-07-29T15:31:46;11.70;;;8.00;;
1715;SDS011;855;48.824;9.220;2022-07-29T15:34:13;9.77;;;6.97;;
1715;SDS011;855;48.824;9.220;2022-07-29T15:36:41;16.10;;;8.30;;
1715;SDS011;855;48.824;9.220;2022-07-29T15:39:08;11.63;;;7.50;;
1715;SDS011;855;48.824;9.220;2022-07-29T15:41:35;12.97;;;7.20;;
1715;SDS011;855;48.824;9.220;2022-07-29T15:44:02;17.63;;;7.00;;
1715;SDS011;855;48.824;9.220;2022-07-29T15:46:29;11.90;;;7.07;;
1715;SDS011;855;48.824;9.220;2022-07-29T15:49:19;13.40;;;7.33;;